createdAt,value
2018-08-22T00:01:39.581Z,4.27
2018-08-22T00:05:33.518Z,5.20
2018-08-22T00:09:27.457Z,3.40
2018-08-22T00:13:21.409Z,3.57
2018-08-22T00:17:15.447Z,3.80
2018-08-22T00:21:09.475Z,4.67
2018-08-22T00:25:03.417Z,6.70
2018-08-22T00:28:57.847Z,4.72
2018-08-22T00:32:51.914Z,3.90
2018-08-22T00:36:46.142Z,4.00
2018-08-22T00:40:40.123Z,3.80
2018-08-22T00:44:34.087Z,3.23
2018-08-22T00:48:28.035Z,4.00
2018-08-22T00:52:22.023Z,5.40
2018-08-22T00:56:16.032Z,3.73
2018-08-22T01:00:10.023Z,6.67
2018-08-22T01:04:03.992Z,2.93
2018-08-22T01:07:58.126Z,3.30
2018-08-22T01:11:52.090Z,4.47
2018-08-22T01:15:46.126Z,4.03
2018-08-22T01:19:40.074Z,3.90
2018-08-22T01:23:34.050Z,3.13
2018-08-22T01:27:27.952Z,2.70
2018-08-22T01:31:21.963Z,3.77
2018-08-22T01:35:15.903Z,3.80
2018-08-22T01:39:10.159Z,3.57
2018-08-22T01:43:04.098Z,2.63
2018-08-22T01:46:58.058Z,4.83
2018-08-22T01:50:52.027Z,3.27
2018-08-22T01:54:48.154Z,5.27
2018-08-22T01:58:42.182Z,2.90
2018-08-22T02:02:36.126Z,3.00
2018-08-22T02:06:30.123Z,3.97
2018-08-22T02:10:24.114Z,3.13
2018-08-22T02:14:18.093Z,2.98
2018-08-22T02:18:12.121Z,3.40
2018-08-22T02:22:06.111Z,3.10
2018-08-22T02:26:00.183Z,4.37
2018-08-22T02:29:54.193Z,3.33
2018-08-22T02:33:48.459Z,3.27
2018-08-22T02:37:42.483Z,2.80
2018-08-22T02:41:36.459Z,3.00
2018-08-22T02:45:30.466Z,2.93
2018-08-22T02:49:24.656Z,2.63
2018-08-22T02:53:18.626Z,3.53
2018-08-22T02:57:12.648Z,3.12
2018-08-22T03:01:06.653Z,4.03
2018-08-22T03:05:00.649Z,2.87
2018-08-22T03:08:54.765Z,3.10
2018-08-22T03:12:49.009Z,2.67
2018-08-22T03:16:42.999Z,5.23
2018-08-22T03:20:36.940Z,3.10
2018-08-22T03:24:30.932Z,7.97
2018-08-22T03:28:24.975Z,3.13
2018-08-22T03:32:18.910Z,3.10
2018-08-22T03:36:13.023Z,4.42
2018-08-22T03:40:07.347Z,3.40
2018-08-22T03:44:01.685Z,4.33
2018-08-22T03:47:56.146Z,4.07
2018-08-22T03:51:50.157Z,3.27
2018-08-22T03:55:44.125Z,7.47
2018-08-22T03:59:38.842Z,4.00
2018-08-22T04:03:33.351Z,5.87
2018-08-22T04:07:27.359Z,4.13
2018-08-22T04:11:21.390Z,4.60
2018-08-22T04:15:15.403Z,4.07
2018-08-22T04:19:09.397Z,4.37
2018-08-22T04:23:05.067Z,4.85
2018-08-22T04:26:59.154Z,5.80
2018-08-22T04:30:53.341Z,3.97
2018-08-22T04:34:47.498Z,4.37
2018-08-22T04:38:41.425Z,4.10
2018-08-22T04:42:35.425Z,5.93
2018-08-22T04:46:29.427Z,5.40
2018-08-22T04:50:23.496Z,4.87
2018-08-22T04:54:17.457Z,7.83
2018-08-22T04:58:11.657Z,9.33
2018-08-22T05:02:05.642Z,8.23
2018-08-22T05:05:59.720Z,5.40
2018-08-22T05:09:53.770Z,8.63
2018-08-22T05:13:48.618Z,5.23
2018-08-22T05:17:42.660Z,5.90
2018-08-22T05:21:36.948Z,7.80
2018-08-22T05:25:31.010Z,6.30
2018-08-22T05:29:25.060Z,6.40
2018-08-22T05:33:20.897Z,5.77
2018-08-22T05:37:14.918Z,8.13
2018-08-22T05:41:09.018Z,9.57
2018-08-22T05:45:03.115Z,5.00
2018-08-22T05:48:57.234Z,11.73
2018-08-22T05:52:51.337Z,6.77
2018-08-22T05:56:45.380Z,8.27
2018-08-22T06:00:39.563Z,5.70
2018-08-22T06:04:34.278Z,12.03
2018-08-22T06:08:28.223Z,6.63
2018-08-22T06:12:22.180Z,7.57
2018-08-22T06:16:16.229Z,11.23
2018-08-22T06:20:10.353Z,18.23
2018-08-22T06:24:04.545Z,5.33
2018-08-22T06:27:59.575Z,10.00
2018-08-22T06:31:53.721Z,5.97
2018-08-22T06:35:47.771Z,7.30
2018-08-22T06:39:41.859Z,4.43
2018-08-22T06:43:35.870Z,10.23
2018-08-22T06:47:29.966Z,4.87
2018-08-22T06:51:24.168Z,7.50
2018-08-22T06:55:19.428Z,4.37
2018-08-22T06:59:13.595Z,5.73
2018-08-22T07:03:07.699Z,4.00
2018-08-22T07:07:01.728Z,6.63
2018-08-22T07:10:55.736Z,6.17
2018-08-22T07:14:49.869Z,5.60
2018-08-22T07:18:44.112Z,8.73
2018-08-22T07:22:38.292Z,4.57
2018-08-22T07:26:32.298Z,7.20
2018-08-22T07:30:26.652Z,3.43
2018-08-22T07:34:20.928Z,3.67
2018-08-22T07:38:15.018Z,8.37
2018-08-22T07:42:09.095Z,5.23
2018-08-22T07:46:03.143Z,5.17
2018-08-22T07:49:57.591Z,6.77
2018-08-22T07:53:51.630Z,7.60
2018-08-22T07:57:45.741Z,7.93
2018-08-22T08:01:40.018Z,6.67
2018-08-22T08:05:34.216Z,8.17
2018-08-22T08:09:28.120Z,5.50
2018-08-22T08:13:29.520Z,8.80
2018-08-22T08:17:23.726Z,4.27
2018-08-22T08:21:17.787Z,4.20
2018-08-22T08:25:11.853Z,5.90
2018-08-22T08:29:05.981Z,4.63
2018-08-22T08:32:59.995Z,7.97
2018-08-22T08:36:53.998Z,5.10
2018-08-22T08:40:48.048Z,3.23
2018-08-22T08:44:42.300Z,5.03
2018-08-22T08:48:36.864Z,4.13
2018-08-22T08:52:30.867Z,3.87
2018-08-22T08:56:24.854Z,3.23
2018-08-22T09:00:19.006Z,4.07
2018-08-22T09:04:13.195Z,4.20
2018-08-22T09:08:07.269Z,3.27
2018-08-22T09:12:01.680Z,4.93
2018-08-22T09:15:55.734Z,4.67
2018-08-22T09:19:49.938Z,6.57
2018-08-22T09:23:45.990Z,3.80
2018-08-22T09:27:40.435Z,4.67
2018-08-22T09:31:34.489Z,5.30
2018-08-22T09:35:29.186Z,6.23
2018-08-22T09:39:23.169Z,5.62
2018-08-22T09:43:17.201Z,3.13
2018-08-22T09:47:11.704Z,6.62
2018-08-22T09:51:05.957Z,3.63
2018-08-22T09:55:01.615Z,4.37
2018-08-22T09:58:55.720Z,5.20
2018-08-22T10:02:50.025Z,4.35
2018-08-22T10:06:47.815Z,3.40
2018-08-22T10:10:43.667Z,4.33
2018-08-22T10:14:37.814Z,4.70
2018-08-22T10:18:31.902Z,4.00
2018-08-22T10:22:27.369Z,3.83
2018-08-22T10:26:21.628Z,4.03
2018-08-22T10:30:15.791Z,3.62
2018-08-22T10:34:09.859Z,4.35
2018-08-22T10:38:03.935Z,4.37
2018-08-22T10:41:57.895Z,10.57
2018-08-22T10:45:52.541Z,4.03
2018-08-22T10:49:46.680Z,6.33
2018-08-22T10:53:41.659Z,4.53
2018-08-22T10:57:36.622Z,5.62
2018-08-22T11:01:30.769Z,6.60
2018-08-22T11:05:25.395Z,4.83
2018-08-22T11:09:19.482Z,3.87
2018-08-22T11:13:13.777Z,7.80
2018-08-22T11:17:08.118Z,5.62
2018-08-22T11:21:13.347Z,5.62
2018-08-22T11:25:18.823Z,4.83
2018-08-22T11:29:24.289Z,5.97
2018-08-22T11:33:29.903Z,4.95
2018-08-22T11:37:24.053Z,4.05
2018-08-22T11:41:19.133Z,6.50
2018-08-22T11:45:13.126Z,10.70
2018-08-22T11:49:07.153Z,7.92
2018-08-22T11:53:01.235Z,5.62
2018-08-22T11:56:55.268Z,8.60
2018-08-22T12:00:54.061Z,4.40
2018-08-22T12:04:48.427Z,6.22
2018-08-22T12:08:42.640Z,9.15
2018-08-22T12:12:43.894Z,5.33
2018-08-22T12:16:38.398Z,6.00
2018-08-22T12:20:32.561Z,4.90
2018-08-22T12:24:26.549Z,5.50
2018-08-22T12:28:20.926Z,5.47
2018-08-22T12:32:15.398Z,6.22
2018-08-22T12:36:09.385Z,6.83
2018-08-22T12:40:03.620Z,6.50
2018-08-22T12:43:57.681Z,5.17
2018-08-22T12:47:51.785Z,5.17
2018-08-22T12:51:46.119Z,5.22
2018-08-22T12:55:40.418Z,7.20
2018-08-22T12:59:34.613Z,5.62
2018-08-22T13:03:28.578Z,5.83
2018-08-22T13:07:22.678Z,5.28
2018-08-22T13:11:16.661Z,7.25
2018-08-22T13:15:10.949Z,8.13
2018-08-22T13:19:05.043Z,6.65
2018-08-22T13:22:59.086Z,7.47
2018-08-22T13:26:53.120Z,7.40
2018-08-22T13:30:47.235Z,6.85
2018-08-22T13:34:41.290Z,10.07
2018-08-22T13:38:36.112Z,7.78
2018-08-22T13:42:41.296Z,8.13
2018-08-22T13:46:35.411Z,8.13
2018-08-22T13:50:29.565Z,8.65
2018-08-22T13:54:23.767Z,7.67
2018-08-22T13:58:17.905Z,8.78
2018-08-22T14:02:12.004Z,8.60
2018-08-22T14:06:07.075Z,7.35
2018-08-22T14:10:01.205Z,6.70
2018-08-22T14:13:55.390Z,7.37
2018-08-22T14:17:49.998Z,8.30
2018-08-22T14:21:44.036Z,6.93
2018-08-22T14:25:38.143Z,6.62
2018-08-22T14:29:32.216Z,8.68
2018-08-22T14:33:26.360Z,6.65
2018-08-22T14:37:20.324Z,10.60
2018-08-22T14:41:14.395Z,7.40
2018-08-22T14:45:08.755Z,9.48
2018-08-22T14:49:02.946Z,6.78
2018-08-22T14:52:57.081Z,5.70
2018-08-22T14:56:51.104Z,8.13
2018-08-22T15:00:46.291Z,6.03
2018-08-22T15:04:40.291Z,9.23
2018-08-22T15:08:34.326Z,6.03
2018-08-22T15:12:28.588Z,5.22
2018-08-22T15:16:22.811Z,6.37
2018-08-22T15:20:16.880Z,7.03
2018-08-22T15:24:10.953Z,7.00
2018-08-22T15:28:05.203Z,6.75
2018-08-22T15:31:59.309Z,8.75
2018-08-22T15:35:53.295Z,7.65
2018-08-22T15:39:47.761Z,6.45
2018-08-22T15:43:41.856Z,6.03
2018-08-22T15:47:35.938Z,5.75
2018-08-22T15:51:32.126Z,7.86
2018-08-22T15:55:26.218Z,8.50
2018-08-22T15:59:20.175Z,7.28
2018-08-22T16:03:14.129Z,8.98
2018-08-22T16:07:08.105Z,10.48
2018-08-22T16:11:06.733Z,8.93
2018-08-22T16:15:00.755Z,11.33
2018-08-22T16:18:54.695Z,11.20
2018-08-22T16:22:48.835Z,10.28
2018-08-22T16:26:43.957Z,10.53
2018-08-22T16:30:38.094Z,13.68
2018-08-22T16:34:36.382Z,13.75
2018-08-22T16:38:30.348Z,13.25
2018-08-22T16:42:29.665Z,12.50
2018-08-22T16:46:24.203Z,10.82
2018-08-22T16:50:18.716Z,11.48
2018-08-22T16:54:12.687Z,11.65
2018-08-22T16:58:06.635Z,12.82
2018-08-22T17:02:00.670Z,10.13
2018-08-22T17:06:06.003Z,10.50
2018-08-22T17:10:00.058Z,10.82
2018-08-22T17:13:54.432Z,11.68
2018-08-22T17:17:48.606Z,10.85
2018-08-22T17:21:42.617Z,10.93
2018-08-22T17:25:36.599Z,9.60
2018-08-22T17:29:30.595Z,9.10
2018-08-22T17:34:02.674Z,8.65
2018-08-22T17:37:58.685Z,9.00
2018-08-22T17:41:52.889Z,9.70
2018-08-22T17:45:46.933Z,10.57
2018-08-22T17:49:41.469Z,11.20
2018-08-22T17:53:37.276Z,9.83
2018-08-22T17:57:31.404Z,12.35
2018-08-22T18:01:26.462Z,8.88
2018-08-22T18:05:21.254Z,13.70
2018-08-22T18:09:15.234Z,11.05
2018-08-22T18:13:14.626Z,12.25
2018-08-22T18:17:08.594Z,12.73
2018-08-22T18:21:02.595Z,11.35
2018-08-22T18:24:57.356Z,10.97
2018-08-22T18:28:51.329Z,12.35
2018-08-22T18:32:45.407Z,11.00
2018-08-22T18:36:39.403Z,14.43
2018-08-22T18:40:33.504Z,11.60
2018-08-22T18:44:27.555Z,14.50
2018-08-22T18:48:21.723Z,12.15
2018-08-22T18:52:15.824Z,12.75
2018-08-22T18:56:16.175Z,12.75
2018-08-22T19:00:10.202Z,13.83
2018-08-22T19:04:04.227Z,13.13
2018-08-22T19:08:11.218Z,15.77
2018-08-22T19:12:05.224Z,11.07
2018-08-22T19:16:02.461Z,19.20
2018-08-22T19:19:56.438Z,11.53
2018-08-22T19:23:55.957Z,12.03
2018-08-22T19:27:49.984Z,15.33
2018-08-22T19:31:48.348Z,13.27
2018-08-22T19:35:42.872Z,11.60
2018-08-22T19:39:37.502Z,18.23
2018-08-22T19:43:31.649Z,13.00
2018-08-22T19:47:25.777Z,11.67
2018-08-22T19:51:19.996Z,14.07
2018-08-22T19:55:13.996Z,12.30
2018-08-22T19:59:08.187Z,13.70
2018-08-22T20:03:02.318Z,16.03
2018-08-22T20:06:56.283Z,18.32
2018-08-22T20:10:50.341Z,13.03
2018-08-22T20:14:50.769Z,12.67
2018-08-22T20:18:47.314Z,12.40
2018-08-22T20:22:42.759Z,14.43
2018-08-22T20:26:38.946Z,13.93
2018-08-22T20:30:33.020Z,15.33
2018-08-22T20:34:27.057Z,13.43
2018-08-22T20:38:21.040Z,14.57
2018-08-22T20:42:16.148Z,23.53
2018-08-22T20:46:10.140Z,16.43
2018-08-22T20:50:04.211Z,15.47
2018-08-22T20:54:02.428Z,16.93
2018-08-22T20:57:56.662Z,18.10
2018-08-22T21:01:54.888Z,17.93
2018-08-22T21:05:48.972Z,19.30
2018-08-22T21:09:43.277Z,18.90
2018-08-22T21:13:39.092Z,17.50
2018-08-22T21:17:33.323Z,20.17
2018-08-22T21:21:27.312Z,22.53
2018-08-22T21:25:21.881Z,19.37
2018-08-22T21:29:15.931Z,19.20
2018-08-22T21:33:10.489Z,21.57
2018-08-22T21:37:14.471Z,18.27
2018-08-22T21:41:09.886Z,21.20
2018-08-22T21:45:04.157Z,17.47
2018-08-22T21:49:02.726Z,24.23
2018-08-22T21:53:00.554Z,18.15
2018-08-22T21:56:54.821Z,21.80
2018-08-22T22:00:48.906Z,17.13
2018-08-22T22:04:43.100Z,23.67
2018-08-22T22:08:41.692Z,21.60
2018-08-22T22:12:36.673Z,23.30
2018-08-22T22:16:31.486Z,24.10
2018-08-22T22:20:25.481Z,21.47
2018-08-22T22:24:19.462Z,23.10
2018-08-22T22:28:13.616Z,23.23
2018-08-22T22:32:07.791Z,22.20
2018-08-22T22:36:01.735Z,22.40
2018-08-22T22:39:55.713Z,22.57
2018-08-22T22:43:49.642Z,25.03
2018-08-22T22:47:44.036Z,23.93
2018-08-22T22:51:38.047Z,22.97
2018-08-22T22:55:32.158Z,24.07
2018-08-22T22:59:26.213Z,23.87
2018-08-22T23:03:20.315Z,25.43
2018-08-22T23:07:21.456Z,25.30
2018-08-22T23:11:15.425Z,27.10
2018-08-22T23:15:12.257Z,27.20
2018-08-22T23:19:06.259Z,25.60
2018-08-22T23:23:00.329Z,35.03
2018-08-22T23:26:54.342Z,34.67
2018-08-22T23:30:48.408Z,32.37
2018-08-22T23:34:42.515Z,36.70
2018-08-22T23:38:38.082Z,31.63
2018-08-22T23:42:32.062Z,33.77
2018-08-22T23:46:26.108Z,31.40
2018-08-22T23:50:20.284Z,35.10
2018-08-22T23:54:14.256Z,36.27
2018-08-22T23:58:08.277Z,37.63
